Time;durP1;ratioP1;P1;durP2;ratioP2;P2;SDS_P1;SDS_P2;PMS_P1;PMS_P2;Temp;Humidity;BMP_temperature;BMP_pressure;BME280_temperature;BME280_humidity;BME280_pressure;Samples;Min_cycle;Max_cycle;Signal;HPM_P1;HPM_P2
2023/01/03 00:09:53;;;;;;;3.35;1.10;;;5.30;99.90;;;;;;6371454;22;20022;-92
2023/01/03 00:12:24;;;;;;;7.40;1.80;;;5.30;99.90;;;;;;6345540;22;20054;-92
2023/01/03 00:14:50;;;;;;;4.80;1.25;;;5.30;99.90;;;;;;6321144;22;20014;-89
2023/01/03 00:17:22;;;;;;;4.43;1.20;;;5.20;99.90;;;;;;6319121;22;20018;-93
2023/01/03 00:19:48;;;;;;;3.33;0.93;;;5.20;99.90;;;;;;6345442;22;20021;-92
2023/01/03 00:22:32;;;;;;;3.77;1.03;;;5.20;99.90;;;;;;6346385;22;20018;-90
2023/01/03 00:25:18;;;;;;;3.33;1.33;;;5.10;99.90;;;;;;6347573;22;20022;-93
2023/01/03 00:27:44;;;;;;;2.60;0.70;;;5.10;99.90;;;;;;6347819;22;20136;-93
2023/01/03 00:30:10;;;;;;;4.17;1.07;;;5.00;99.90;;;;;;6352894;22;20018;-91
2023/01/03 00:32:35;;;;;;;1.83;0.80;;;5.00;99.90;;;;;;6357429;22;20022;-91
2023/01/03 00:35:01;;;;;;;1.90;0.60;;;5.00;99.90;;;;;;6359092;22;20244;-90
2023/01/03 00:37:27;;;;;;;4.10;0.80;;;5.00;99.90;;;;;;6325889;22;20011;-91
2023/01/03 00:40:48;;;;;;;1.40;0.50;;;5.00;99.90;;;;;;6346574;22;20042;-94
2023/01/03 03:15:43;;;;;;;4.72;0.85;;;5.20;99.90;;;;;;6321672;22;20444;-92
2023/01/03 03:18:15;;;;;;;3.28;1.00;;;5.10;99.90;;;;;;6282652;22;20072;-94
2023/01/03 03:26:17;;;;;;;3.22;0.80;;;5.00;99.90;;;;;;6335794;22;20074;-92
2023/01/03 03:28:46;;;;;;;4.25;0.95;;;5.00;99.90;;;;;;6314939;22;20028;-91
2023/01/03 03:32:08;;;;;;;4.35;0.90;;;5.00;99.90;;;;;;6314226;22;20019;-91
2023/01/03 03:35:01;;;;;;;3.42;0.90;;;4.90;99.90;;;;;;6318734;22;20030;-92
2023/01/03 04:07:45;;;;;;;2.90;0.93;;;4.50;99.90;;;;;;6340973;22;20439;-93
2023/01/03 05:02:03;;;;;;;6.60;1.45;;;4.00;99.90;;;;;;6321044;22;20027;-92
2023/01/03 05:09:00;;;;;;;5.72;2.00;;;4.00;99.90;;;;;;6369875;22;20018;-92
2023/01/03 05:11:44;;;;;;;5.28;1.90;;;4.00;99.90;;;;;;6301615;22;20014;-93
2023/01/03 05:14:10;;;;;;;4.35;1.23;;;4.00;99.90;;;;;;6318981;22;20015;-93
2023/01/03 05:16:47;;;;;;;4.90;1.83;;;4.10;99.90;;;;;;6345382;22;20017;-93
2023/01/03 05:19:25;;;;;;;6.25;1.60;;;4.10;99.90;;;;;;6319015;22;20010;-93
2023/01/03 05:29:37;;;;;;;4.57;1.83;;;4.10;99.90;;;;;;6253911;22;20437;-93
2023/01/03 05:47:33;;;;;;;6.28;2.42;;;4.20;99.90;;;;;;6306103;22;20062;-93
2023/01/03 05:59:08;;;;;;;7.03;2.70;;;4.30;99.90;;;;;;6374352;22;20018;-93
2023/01/03 06:06:44;;;;;;;7.65;3.22;;;4.40;99.90;;;;;;6340564;22;20018;-92
2023/01/03 06:09:10;;;;;;;6.67;2.80;;;4.40;99.90;;;;;;6256902;22;20019;-93
2023/01/03 06:11:37;;;;;;;5.93;2.60;;;4.40;99.90;;;;;;6251528;22;20026;-92
2023/01/03 06:14:03;;;;;;;10.18;2.88;;;4.50;99.90;;;;;;6289023;22;20156;-91
2023/01/03 06:19:06;;;;;;;7.47;2.60;;;4.50;99.90;;;;;;6273181;22;19925;-94
2023/01/03 06:21:31;;;;;;;7.85;2.55;;;4.50;99.90;;;;;;6253198;22;20028;-92
2023/01/03 06:23:57;;;;;;;7.70;3.13;;;4.50;99.90;;;;;;6251255;22;20019;-94
2023/01/03 07:16:43;;;;;;;15.27;5.63;;;3.80;99.90;;;;;;6324143;22;20347;-93
2023/01/03 07:22:44;;;;;;;14.52;6.10;;;3.70;99.90;;;;;;6341352;22;20451;-90
2023/01/03 07:25:20;;;;;;;16.33;6.30;;;3.60;99.90;;;;;;6316664;22;20071;-90
2023/01/03 07:28:03;;;;;;;15.00;6.03;;;3.60;99.90;;;;;;6293914;22;20053;-91
2023/01/03 07:51:17;;;;;;;12.73;5.78;;;3.30;99.90;;;;;;6338705;22;20026;-91
2023/01/03 07:54:20;;;;;;;14.13;6.45;;;3.30;99.90;;;;;;6285513;22;20497;-91
2023/01/03 07:56:51;;;;;;;15.80;6.45;;;3.30;99.90;;;;;;6257145;22;20050;-90
2023/01/03 07:59:52;;;;;;;16.45;7.30;;;3.30;99.90;;;;;;6259604;22;20011;-89
2023/01/03 08:17:37;;;;;;;12.50;5.43;;;3.30;99.90;;;;;;6174739;23;20031;-88
2023/01/03 08:20:37;;;;;;;13.70;6.32;;;3.30;99.90;;;;;;6180910;23;20020;-92
2023/01/03 08:23:03;;;;;;;13.25;5.93;;;3.40;99.90;;;;;;6210072;23;20020;-90
2023/01/03 08:33:49;;;;;;;14.35;5.75;;;3.50;99.90;;;;;;6336983;22;20015;-90
2023/01/03 08:41:29;;;;;;;15.48;5.25;;;3.50;99.90;;;;;;6310289;22;20019;-90
2023/01/03 08:45:16;;;;;;;11.30;4.85;;;3.50;99.90;;;;;;6286800;22;20089;-92
2023/01/03 09:17:03;;;;;;;11.32;4.85;;;3.80;99.90;;;;;;6322608;22;20030;-92
2023/01/03 09:20:32;;;;;;;11.37;5.27;;;3.80;99.90;;;;;;6343661;22;20022;-90
2023/01/03 09:22:58;;;;;;;11.17;4.63;;;3.80;99.90;;;;;;6224535;22;20071;-91
2023/01/03 10:07:41;;;;;;;9.35;4.25;;;3.40;99.90;;;;;;6247146;22;20031;-94
2023/01/03 10:10:35;;;;;;;9.10;4.22;;;3.30;99.90;;;;;;6185937;23;20000;-94
2023/01/03 10:13:44;;;;;;;10.48;4.47;;;3.20;99.90;;;;;;6199317;23;20062;-91
2023/01/03 10:16:10;;;;;;;8.75;3.95;;;3.10;99.90;;;;;;6220962;23;20012;-94
2023/01/03 10:18:44;;;;;;;9.68;4.75;;;3.10;99.90;;;;;;6220440;23;20337;-90
2023/01/03 10:21:33;;;;;;;8.80;4.22;;;3.10;99.90;;;;;;6221271;23;20020;-95
2023/01/03 10:34:14;;;;;;;10.35;4.55;;;3.00;99.90;;;;;;6346903;22;20022;-95
2023/01/03 10:36:40;;;;;;;9.77;4.50;;;3.00;99.90;;;;;;6343385;22;20025;-96
2023/01/03 10:39:30;;;;;;;11.37;4.60;;;3.00;99.90;;;;;;6338439;22;20010;-95
2023/01/03 10:42:49;;;;;;;12.02;5.47;;;3.00;99.90;;;;;;6339126;22;20018;-96
2023/01/03 10:45:19;;;;;;;11.60;5.30;;;3.10;99.90;;;;;;6339399;22;20063;-94
2023/01/03 10:48:17;;;;;;;11.82;5.30;;;3.20;99.90;;;;;;6313226;22;20010;-93
2023/01/03 10:50:42;;;;;;;11.52;4.75;;;3.30;99.90;;;;;;6339231;22;20229;-93
2023/01/03 10:53:12;;;;;;;13.10;5.85;;;3.30;99.90;;;;;;6339340;22;20014;-93
2023/01/03 10:55:49;;;;;;;12.13;5.88;;;3.40;99.90;;;;;;6341479;22;20144;-94
2023/01/03 10:58:20;;;;;;;;;;;3.40;99.90;;;;;;6343124;22;20101;-95
2023/01/03 11:00:46;;;;;;;12.10;5.82;;;3.50;99.90;;;;;;6343529;22;19956;-94
2023/01/03 11:03:15;;;;;;;13.73;6.28;;;3.60;99.90;;;;;;6343409;22;20018;-92
2023/01/03 11:05:44;;;;;;;16.60;6.65;;;3.60;99.90;;;;;;6343546;22;20014;-94
2023/01/03 11:08:19;;;;;;;15.60;7.32;;;3.70;99.90;;;;;;6343530;22;20029;-93
2023/01/03 11:10:50;;;;;;;17.20;7.07;;;3.70;99.90;;;;;;6343663;22;20068;-93
2023/01/03 11:13:23;;;;;;;17.65;7.15;;;3.80;99.90;;;;;;6343217;22;20435;-91
2023/01/03 11:15:54;;;;;;;17.75;7.13;;;3.80;99.90;;;;;;6343496;22;20034;-93
2023/01/03 11:19:14;;;;;;;19.55;7.40;;;3.80;99.90;;;;;;6344086;22;20351;-94
2023/01/03 11:21:42;;;;;;;18.33;8.65;;;3.90;99.90;;;;;;6278003;22;20139;-95
2023/01/03 11:28:13;;;;;;;23.02;9.93;;;4.00;99.90;;;;;;6371095;22;20040;-95
2023/01/03 11:30:45;;;;;;;22.60;9.45;;;4.20;99.90;;;;;;6343436;22;20014;-94
2023/01/03 11:33:18;;;;;;;27.52;10.88;;;4.30;99.90;;;;;;6343248;22;20089;-95
2023/01/03 11:35:49;;;;;;;30.95;11.75;;;4.40;99.90;;;;;;6343349;22;20089;-92
2023/01/03 11:38:23;;;;;;;31.70;12.15;;;4.40;99.90;;;;;;6344208;22;20019;-93
2023/01/03 11:48:28;;;;;;;25.20;10.80;;;4.70;99.90;;;;;;6375058;22;20014;-95
2023/01/03 13:09:10;;;;;;;18.42;7.75;;;5.80;99.90;;;;;;6372184;22;20446;-92
2023/01/03 13:11:51;;;;;;;18.92;8.38;;;5.80;99.90;;;;;;6337404;22;20014;-94
2023/01/03 13:14:26;;;;;;;21.20;7.95;;;5.80;99.90;;;;;;6344201;22;20018;-93
2023/01/03 13:16:53;;;;;;;21.38;9.15;;;5.90;99.90;;;;;;6344209;22;20046;-93
2023/01/03 13:19:19;;;;;;;17.42;8.52;;;5.90;99.90;;;;;;6344352;22;20029;-94
2023/01/03 13:21:54;;;;;;;18.50;7.93;;;5.90;99.90;;;;;;6344412;22;20019;-94
2023/01/03 13:25:06;;;;;;;17.33;8.15;;;5.90;99.90;;;;;;6345272;22;20377;-94
2023/01/03 13:27:37;;;;;;;21.00;8.48;;;6.00;99.90;;;;;;6370250;22;20050;-94
2023/01/03 13:30:20;;;;;;;16.20;7.88;;;6.00;99.90;;;;;;6344225;22;20010;-94
2023/01/03 13:33:15;;;;;;;14.18;6.72;;;6.00;99.90;;;;;;6344535;22;20011;-93
2023/01/03 13:35:44;;;;;;;16.10;6.88;;;6.00;99.90;;;;;;6344306;22;20018;-93
2023/01/03 13:38:30;;;;;;;16.33;6.45;;;6.10;99.90;;;;;;6344273;22;20029;-93
2023/01/03 13:41:04;;;;;;;16.40;6.47;;;6.10;99.90;;;;;;6344270;22;20444;-93
2023/01/03 13:43:33;;;;;;;14.93;6.60;;;6.10;99.90;;;;;;6344012;22;20455;-93
2023/01/03 13:46:19;;;;;;;14.18;6.75;;;6.10;99.90;;;;;;6343603;22;20029;-93
2023/01/03 13:48:57;;;;;;;14.45;5.63;;;6.20;99.90;;;;;;6344028;22;20046;-94
2023/01/03 13:51:34;;;;;;;12.65;5.63;;;6.20;99.90;;;;;;6343940;22;20046;-94
2023/01/03 13:54:10;;;;;;;14.00;5.60;;;6.20;99.90;;;;;;6344027;22;20026;-94
2023/01/03 13:56:42;;;;;;;13.38;5.60;;;6.20;99.90;;;;;;6344509;22;20010;-93
2023/01/03 13:59:14;;;;;;;13.32;5.70;;;6.20;99.90;;;;;;6344229;22;20019;-95
2023/01/03 14:02:07;;;;;;;12.32;5.50;;;6.20;99.90;;;;;;6343662;22;20025;-94
2023/01/03 14:04:52;;;;;;;12.70;5.60;;;6.30;99.90;;;;;;6344086;22;20015;-94
2023/01/03 14:07:47;;;;;;;13.00;5.40;;;6.20;99.90;;;;;;6343832;22;20512;-93
2023/01/03 14:10:41;;;;;;;15.95;6.22;;;6.30;99.90;;;;;;6280773;22;20018;-95
2023/01/03 14:13:25;;;;;;;14.18;6.50;;;6.30;99.90;;;;;;6344251;22;20018;-95
2023/01/03 14:16:15;;;;;;;15.70;6.35;;;6.30;99.90;;;;;;6343932;22;20439;-94
2023/01/03 14:18:50;;;;;;;15.88;5.53;;;6.40;99.90;;;;;;6343831;22;20014;-94
2023/01/03 14:21:36;;;;;;;14.10;6.05;;;6.40;99.90;;;;;;6344166;22;20018;-93
2023/01/03 14:24:03;;;;;;;12.27;5.78;;;6.40;99.90;;;;;;6343584;22;20010;-94
2023/01/03 14:26:30;;;;;;;13.90;5.80;;;6.40;99.90;;;;;;6317589;22;20018;-92
2023/01/03 14:28:56;;;;;;;10.23;4.88;;;6.40;99.90;;;;;;6317532;22;20049;-94
2023/01/03 14:31:26;;;;;;;12.13;5.47;;;6.40;99.90;;;;;;6343636;22;20071;-94
2023/01/03 14:33:58;;;;;;;13.95;5.95;;;6.40;99.90;;;;;;6343998;22;20075;-94
2023/01/03 14:36:24;;;;;;;12.60;5.65;;;6.40;99.90;;;;;;6343769;22;20056;-93
2023/01/03 14:38:58;;;;;;;12.80;5.32;;;6.40;99.90;;;;;;6343959;22;20339;-94
2023/01/03 14:41:31;;;;;;;15.30;5.97;;;6.40;99.90;;;;;;6343979;22;20014;-93
2023/01/03 14:44:14;;;;;;;13.40;5.32;;;6.40;99.90;;;;;;6343848;22;20015;-96
2023/01/03 14:46:49;;;;;;;11.10;5.45;;;6.50;99.90;;;;;;6343999;22;20025;-94
2023/01/03 14:49:23;;;;;;;15.20;6.40;;;6.50;99.90;;;;;;6344321;22;20010;-93
2023/01/03 14:51:50;;;;;;;13.95;6.00;;;6.50;99.90;;;;;;6343793;22;20018;-93
2023/01/03 14:54:17;;;;;;;;;;;6.50;99.90;;;;;;6344690;22;20018;-94
2023/01/03 14:56:45;;;;;;;16.90;5.93;;;6.50;99.90;;;;;;6343456;22;19929;-94
2023/01/03 14:59:15;;;;;;;14.63;6.30;;;6.60;99.90;;;;;;6344852;22;20089;-93
2023/01/03 15:01:42;;;;;;;14.65;6.75;;;6.60;99.90;;;;;;6343983;22;20025;-94
2023/01/03 15:04:15;;;;;;;13.38;6.35;;;6.60;99.90;;;;;;6343578;22;20018;-94
2023/01/03 15:07:02;;;;;;;16.90;6.15;;;6.60;99.90;;;;;;6342758;22;20014;-94
2023/01/03 15:09:33;;;;;;;14.07;6.03;;;6.60;99.90;;;;;;6343882;22;20018;-94
2023/01/03 15:12:04;;;;;;;14.48;6.03;;;6.60;99.90;;;;;;6343630;22;20295;-92
2023/01/03 15:14:32;;;;;;;14.63;6.50;;;6.70;99.90;;;;;;6345613;22;20018;-93
2023/01/03 15:17:14;;;;;;;12.57;5.93;;;6.60;99.90;;;;;;6346060;22;20038;-95
2023/01/03 15:19:48;;;;;;;14.65;6.65;;;6.60;99.90;;;;;;6345558;22;20148;-93
2023/01/03 15:22:17;;;;;;;14.48;6.70;;;6.60;99.90;;;;;;6345434;22;20445;-93
2023/01/03 15:24:45;;;;;;;14.80;6.25;;;6.70;99.90;;;;;;6345223;22;20071;-94
2023/01/03 15:27:37;;;;;;;15.70;6.95;;;6.70;99.90;;;;;;6345440;22;20032;-94
2023/01/03 15:30:22;;;;;;;15.95;6.15;;;6.70;99.90;;;;;;6339577;22;20014;-93
2023/01/03 15:32:47;;;;;;;13.95;6.13;;;6.70;99.90;;;;;;6345139;22;20088;-91
2023/01/03 15:35:30;;;;;;;14.47;6.17;;;6.70;99.90;;;;;;6345297;22;20076;-94
2023/01/03 15:37:58;;;;;;;12.35;5.30;;;6.70;99.90;;;;;;6345172;22;20012;-93
2023/01/03 15:40:23;;;;;;;14.98;6.35;;;6.70;99.90;;;;;;6320400;22;20018;-96
2023/01/03 15:45:38;;;;;;;25.83;12.18;;;6.70;99.90;;;;;;6372486;22;20025;-94
2023/01/03 15:48:06;;;;;;;621.60;243.73;;;6.70;99.90;;;;;;6345278;22;20022;-93
2023/01/03 15:50:42;;;;;;;285.83;159.38;;;6.80;99.90;;;;;;6345306;22;20018;-95
2023/01/03 15:53:36;;;;;;;106.45;57.03;;;6.80;99.90;;;;;;6345194;22;20022;-95
2023/01/03 15:56:25;;;;;;;42.63;27.85;;;6.80;99.90;;;;;;6340219;22;20068;-94
2023/01/03 15:58:54;;;;;;;59.50;53.00;;;6.80;99.90;;;;;;6345198;22;20010;-93
2023/01/03 16:01:21;;;;;;;23.17;16.27;;;6.80;99.90;;;;;;6345579;22;20010;-94
2023/01/03 16:03:49;;;;;;;18.30;9.73;;;6.80;99.90;;;;;;6345229;22;20018;-94
2023/01/03 16:06:15;;;;;;;13.13;7.18;;;6.80;99.90;;;;;;6345080;22;20093;-93
2023/01/03 16:08:42;;;;;;;12.88;6.55;;;6.80;99.90;;;;;;6345370;22;20011;-93
2023/01/03 16:11:19;;;;;;;13.32;6.65;;;6.80;99.90;;;;;;6345025;22;20035;-93
2023/01/03 16:13:51;;;;;;;14.60;6.43;;;6.90;99.90;;;;;;6344997;22;20020;-95
2023/01/03 16:16:23;;;;;;;15.98;7.30;;;6.90;99.90;;;;;;6345016;22;20093;-93
2023/01/03 16:18:49;;;;;;;11.57;5.35;;;6.90;99.90;;;;;;6345104;22;20014;-93
2023/01/03 16:21:16;;;;;;;12.35;5.97;;;6.90;99.90;;;;;;6345185;22;20344;-94
2023/01/03 16:23:41;;;;;;;13.85;5.75;;;6.90;99.90;;;;;;6344813;22;20014;-92
2023/01/03 16:26:07;;;;;;;12.17;5.57;;;6.90;99.90;;;;;;6344869;22;20033;-94
2023/01/03 16:28:34;;;;;;;12.75;5.03;;;6.90;99.90;;;;;;6344908;22;20836;-94
2023/01/03 16:31:20;;;;;;;11.93;5.72;;;6.90;99.90;;;;;;6344700;22;20057;-92
2023/01/03 16:33:50;;;;;;;11.82;5.03;;;6.90;99.90;;;;;;6344983;22;20322;-93
2023/01/03 16:36:25;;;;;;;11.32;5.43;;;6.90;99.90;;;;;;6343549;22;20024;-93
2023/01/03 16:38:51;;;;;;;14.40;6.03;;;6.90;99.90;;;;;;6343672;22;20056;-94
2023/01/03 16:41:17;;;;;;;11.43;4.90;;;6.90;99.90;;;;;;6343976;22;20010;-93
2023/01/03 16:43:43;;;;;;;12.93;5.07;;;6.80;99.90;;;;;;6319111;22;20076;-94
2023/01/03 16:46:10;;;;;;;12.03;5.13;;;6.90;99.90;;;;;;6344673;22;20096;-92
2023/01/03 16:48:39;;;;;;;11.43;5.22;;;6.90;99.90;;;;;;6344619;22;20014;-93
2023/01/03 16:51:05;;;;;;;12.63;4.95;;;6.80;99.90;;;;;;6344745;22;20014;-92
2023/01/03 16:54:11;;;;;;;12.82;5.40;;;6.80;99.90;;;;;;6318379;22;20018;-95
2023/01/03 16:56:37;;;;;;;11.48;4.85;;;6.80;99.90;;;;;;6343347;22;20017;-92
2023/01/03 16:59:03;;;;;;;11.63;4.80;;;6.80;99.90;;;;;;6344570;22;20342;-93
2023/01/03 17:06:13;;;;;;;11.55;4.97;;;6.80;99.90;;;;;;6242246;22;20027;-93
2023/01/03 17:09:52;;;;;;;8.88;4.43;;;6.80;99.90;;;;;;6239285;22;20015;-93
2023/01/03 17:23:08;;;;;;;13.57;5.10;;;6.80;99.90;;;;;;6370277;22;20026;-90
2023/01/03 17:25:35;;;;;;;9.40;4.03;;;6.80;99.90;;;;;;6343608;22;20019;-91
2023/01/03 17:28:01;;;;;;;9.98;3.78;;;6.80;99.90;;;;;;6343771;22;20010;-91
2023/01/03 17:30:27;;;;;;;8.87;4.03;;;6.90;99.90;;;;;;6344260;22;20324;-90
2023/01/03 17:32:54;;;;;;;8.25;3.55;;;6.90;99.90;;;;;;6344081;22;20017;-90
2023/01/03 17:35:20;;;;;;;8.77;3.80;;;6.90;99.90;;;;;;6343851;22;20029;-91
2023/01/03 17:37:45;;;;;;;6.93;3.50;;;6.90;99.90;;;;;;6318142;22;20010;-92
2023/01/03 17:40:18;;;;;;;9.23;3.90;;;7.00;99.90;;;;;;6344716;22;20102;-92
2023/01/03 17:42:46;;;;;;;8.73;4.10;;;7.00;99.90;;;;;;6344184;22;20017;-92
2023/01/03 17:50:43;;;;;;;10.65;6.72;;;7.00;99.90;;;;;;6370325;22;20056;-93
2023/01/03 17:53:11;;;;;;;10.70;3.47;;;7.00;99.90;;;;;;6344284;22;20022;-92
2023/01/03 17:55:38;;;;;;;8.63;4.80;;;7.00;99.90;;;;;;6343732;22;20124;-93
2023/01/03 17:58:04;;;;;;;;;;;7.00;99.90;;;;;;6318686;22;20018;-91
2023/01/03 18:00:31;;;;;;;9.43;4.20;;;7.00;99.90;;;;;;6343917;22;19968;-92
2023/01/03 18:02:58;;;;;;;7.57;3.20;;;7.00;99.90;;;;;;6343955;22;20022;-92
2023/01/03 18:05:27;;;;;;;7.70;3.20;;;7.00;99.90;;;;;;6343793;22;20075;-92
2023/01/03 18:07:56;;;;;;;7.82;3.88;;;7.00;99.90;;;;;;6344001;22;20435;-90
2023/01/03 18:10:45;;;;;;;6.72;3.42;;;7.00;99.90;;;;;;6344004;22;20014;-92
2023/01/03 18:13:29;;;;;;;7.63;3.85;;;7.10;99.90;;;;;;6343461;22;20014;-92
2023/01/03 18:15:55;;;;;;;8.75;3.72;;;7.00;99.90;;;;;;6343626;22;20063;-92
2023/01/03 18:18:23;;;;;;;7.63;2.70;;;7.00;99.90;;;;;;6317653;22;20129;-91
2023/01/03 18:20:50;;;;;;;9.05;3.70;;;7.10;99.90;;;;;;6343588;22;20024;-93
2023/01/03 18:23:29;;;;;;;7.22;3.20;;;7.10;99.90;;;;;;6317866;22;20101;-93
2023/01/03 18:25:59;;;;;;;7.85;2.85;;;7.10;99.90;;;;;;6344217;22;20111;-91
2023/01/03 18:28:26;;;;;;;7.57;3.60;;;7.00;99.90;;;;;;6343474;22;20085;-91
2023/01/03 18:30:52;;;;;;;;;;;7.00;99.90;;;;;;6318361;22;20018;-91
2023/01/03 18:33:18;;;;;;;7.95;3.53;;;7.00;99.90;;;;;;6343597;22;19993;-91
2023/01/03 18:35:44;;;;;;;6.20;3.27;;;7.00;99.90;;;;;;6343780;22;20046;-92
2023/01/03 18:38:23;;;;;;;8.33;3.80;;;7.00;99.90;;;;;;6343232;22;20025;-91
2023/01/03 18:40:50;;;;;;;5.97;2.83;;;7.00;99.90;;;;;;6369608;22;20050;-92
2023/01/03 18:43:18;;;;;;;6.47;2.75;;;7.00;99.90;;;;;;6343440;22;20023;-91
2023/01/03 18:45:43;;;;;;;6.63;2.95;;;7.00;99.90;;;;;;6342815;22;20054;-94
2023/01/03 18:48:15;;;;;;;6.03;2.93;;;7.00;99.90;;;;;;6343687;22;20018;-93
2023/01/03 18:50:42;;;;;;;7.20;3.08;;;7.00;99.90;;;;;;6344104;22;20018;-93
2023/01/03 18:53:10;;;;;;;;;;;7.00;99.90;;;;;;6344206;22;20011;-92
2023/01/03 18:55:35;;;;;;;;;;;7.00;99.90;;;;;;6344475;22;19914;-91
2023/01/03 18:58:19;;;;;;;6.90;3.00;;;7.00;99.90;;;;;;6343497;22;19967;-94
2023/01/03 19:00:45;;;;;;;4.88;2.40;;;7.00;99.90;;;;;;6343414;22;20010;-92
2023/01/03 19:03:26;;;;;;;5.97;2.67;;;7.00;99.90;;;;;;6343863;22;20388;-92
2023/01/03 19:05:54;;;;;;;6.93;2.47;;;7.00;99.90;;;;;;6344748;22;20443;-93
2023/01/03 19:08:22;;;;;;;8.25;3.38;;;7.00;99.90;;;;;;6344758;22;20019;-92
2023/01/03 19:10:48;;;;;;;6.10;2.88;;;7.10;99.90;;;;;;6343648;22;20021;-91
2023/01/03 19:13:48;;;;;;;5.00;2.63;;;7.00;99.90;;;;;;6317936;22;20018;-95
2023/01/03 19:16:19;;;;;;;5.88;2.90;;;7.00;99.90;;;;;;6321362;22;20010;-91
2023/01/03 19:18:45;;;;;;;7.82;2.83;;;7.00;99.90;;;;;;6343379;22;20048;-92
2023/01/03 19:21:13;;;;;;;6.57;2.60;;;7.00;99.90;;;;;;6317813;22;20011;-95
2023/01/03 19:23:40;;;;;;;5.82;3.00;;;7.00;99.90;;;;;;6343176;22;20018;-90
2023/01/03 19:26:35;;;;;;;5.20;2.63;;;7.00;99.90;;;;;;6317494;22;20018;-95
2023/01/03 19:29:04;;;;;;;4.53;2.40;;;7.00;99.90;;;;;;6344334;22;20014;-91
2023/01/03 19:31:42;;;;;;;8.55;2.67;;;7.00;99.90;;;;;;6343614;22;20023;-95
2023/01/03 19:34:26;;;;;;;4.65;2.33;;;7.00;99.90;;;;;;6343928;22;20068;-92
2023/01/03 19:36:52;;;;;;;5.80;2.72;;;7.10;99.90;;;;;;6343403;22;20528;-92
2023/01/03 19:39:29;;;;;;;5.33;2.67;;;7.10;99.90;;;;;;6343645;22;20010;-95
2023/01/03 19:45:43;;;;;;;6.45;2.22;;;7.10;99.90;;;;;;6306808;22;20019;-95
2023/01/03 19:48:18;;;;;;;39.38;17.85;;;7.10;99.90;;;;;;6225138;22;20070;-93
2023/01/03 19:50:44;;;;;;;19.92;13.98;;;7.10;99.90;;;;;;6266972;22;20056;-93
2023/01/03 20:42:40;;;;;;;3.05;1.63;;;7.30;99.90;;;;;;5730516;22;25476110;-96
2023/01/03 20:45:07;;;;;;;6.15;1.88;;;7.50;99.90;;;;;;6353094;22;20211;-92
2023/01/03 20:47:33;;;;;;;6.60;2.00;;;7.50;99.90;;;;;;6301485;22;20014;-93
2023/01/03 20:49:59;;;;;;;5.90;1.92;;;7.50;99.90;;;;;;6300107;22;20051;-89
2023/01/03 20:52:25;;;;;;;5.60;1.70;;;7.50;99.90;;;;;;6326538;22;20026;-90
2023/01/03 20:54:55;;;;;;;7.20;2.33;;;7.60;99.90;;;;;;6301655;22;20006;-96
2023/01/03 20:57:20;;;;;;;7.63;1.88;;;7.60;99.90;;;;;;6327736;22;20022;-94
2023/01/03 20:59:50;;;;;;;6.37;3.20;;;7.60;99.90;;;;;;6301485;22;20021;-93
2023/01/03 21:02:16;;;;;;;6.40;2.03;;;7.60;99.90;;;;;;6300912;22;20093;-93
2023/01/03 21:04:42;;;;;;;5.93;1.97;;;7.60;99.90;;;;;;6300559;22;20071;-91
2023/01/03 21:10:25;;;;;;;4.13;1.65;;;7.60;99.90;;;;;;6352839;22;20456;-91
2023/01/03 21:13:03;;;;;;;4.53;2.40;;;7.60;99.90;;;;;;6326903;22;20010;-94
2023/01/03 21:18:05;;;;;;;4.72;1.77;;;7.60;99.90;;;;;;6347561;22;20018;-89
2023/01/03 21:20:32;;;;;;;4.88;1.50;;;7.60;99.90;;;;;;6293361;22;20022;-90
2023/01/03 21:23:14;;;;;;;4.88;1.85;;;7.60;99.90;;;;;;6297287;22;20017;-90
2023/01/03 21:25:39;;;;;;;4.82;2.00;;;7.60;99.90;;;;;;6294794;22;20079;-90
2023/01/03 21:28:05;;;;;;;5.83;2.97;;;7.60;99.90;;;;;;6296015;22;20019;-94
2023/01/03 21:30:31;;;;;;;7.17;1.80;;;7.70;99.90;;;;;;6269125;22;20021;-92
2023/01/03 21:40:57;;;;;;;4.18;1.77;;;7.70;99.90;;;;;;6346462;22;20019;-91
2023/01/03 21:43:26;;;;;;;4.97;1.77;;;7.70;99.90;;;;;;6288425;22;20444;-93
2023/01/03 21:45:55;;;;;;;6.63;1.70;;;7.70;99.90;;;;;;6262544;22;20336;-89
2023/01/03 21:48:20;;;;;;;5.72;1.75;;;7.70;99.90;;;;;;6287823;22;20015;-94
2023/01/03 21:50:52;;;;;;;3.10;1.40;;;7.70;99.90;;;;;;6288148;22;20019;-93
2023/01/03 21:53:29;;;;;;;5.20;1.98;;;7.80;99.90;;;;;;6309785;22;20017;-93
2023/01/03 21:56:06;;;;;;;4.55;1.42;;;7.70;99.90;;;;;;6287154;22;20351;-91
2023/01/03 21:58:32;;;;;;;4.57;1.63;;;7.80;99.90;;;;;;6287560;22;20318;-91
2023/01/03 22:01:11;;;;;;;5.50;1.83;;;7.70;99.90;;;;;;6287490;22;20014;-90
2023/01/03 22:06:21;;;;;;;5.07;1.58;;;7.70;99.90;;;;;;6313674;22;20022;-94
2023/01/03 22:10:14;;;;;;;4.07;1.55;;;7.70;99.90;;;;;;6287993;22;20404;-93
